< < Back
Terminal Aerodrome Forecast


Current Version              Previous Versions:   1  2  3  4  5  6  7  8  9  

Terminal Aerodrome Forecast

289
FTUS42 KTAE 291120
TAFTLH
TAF
KTLH 291120Z 2912/3012 08008KT P6SM BKN015
     FM291400 06010KT P6SM SCT030=



Latest METAR

111
SAUS80 KWBC 291400 RRB
MTRTLH
METAR KTLH 291353Z 08010KT 10SM BKN016 29/24 A3002 RMK AO2 SLP165
T02890239


USA.gov is the U.S. government's official web portal to all federal, state and local government web resources and services.